Time;durP1;ratioP1;P1;durP2;ratioP2;P2;SDS_P1;SDS_P2;PMS_P1;PMS_P2;Temp;Humidity;BMP_temperature;BMP_pressure;BME280_temperature;BME280_humidity;BME280_pressure;Samples;Min_cycle;Max_cycle;Signal;HPM_P1;HPM_P2
2022/11/07 00:01:21;;;;;;;4.18;1.40;;;10.90;99.90;;;-144.05;65.52;125687.94;5015043;28;20088;-79
2022/11/07 00:03:48;;;;;;;2.25;1.33;;;11.00;99.90;;;-144.05;65.46;125687.94;5015383;28;20025;-79
2022/11/07 00:06:14;;;;;;;4.60;1.77;;;11.00;99.90;;;-144.05;65.45;125687.94;5015332;28;20085;-79
2022/11/07 00:08:40;;;;;;;4.53;1.38;;;11.00;99.90;;;-144.05;66.17;125687.94;5015681;28;20050;-79
2022/11/07 00:11:06;;;;;;;2.22;1.27;;;10.90;99.90;;;-144.05;65.90;125687.94;5016475;28;20057;-79
2022/11/07 00:13:33;;;;;;;4.28;1.45;;;10.90;99.90;;;-144.05;66.63;125687.94;5016668;28;20037;-79
2022/11/07 00:16:09;;;;;;;3.83;1.08;;;10.90;99.90;;;-144.05;66.85;125687.94;5015475;28;20064;-80
2022/11/07 00:18:36;;;;;;;5.90;1.67;;;10.80;99.90;;;-144.05;66.75;125687.94;5015931;28;20041;-80
2022/11/07 00:21:08;;;;;;;1.95;1.15;;;10.90;99.90;;;-144.05;66.49;125687.94;5015869;28;20026;-79
2022/11/07 00:23:38;;;;;;;3.97;1.40;;;10.90;99.90;;;-144.05;66.11;125687.94;5014567;28;20033;-79
2022/11/07 00:26:09;;;;;;;3.47;1.27;;;10.90;99.90;;;-144.05;66.30;125687.94;5014431;28;20034;-80
2022/11/07 00:28:40;;;;;;;2.20;1.63;;;11.00;99.90;;;-144.05;66.27;125687.94;5016010;28;20053;-79
2022/11/07 00:31:09;;;;;;;2.22;1.30;;;11.00;99.90;;;-144.05;66.65;125687.94;5015484;28;20096;-79
2022/11/07 00:33:35;;;;;;;2.38;1.48;;;11.00;99.90;;;-144.05;67.04;125687.94;5015598;28;20033;-79
2022/11/07 00:36:01;;;;;;;3.78;1.27;;;11.00;99.90;;;-144.05;66.90;125687.94;5015148;28;20034;-81
2022/11/07 00:38:27;;;;;;;4.32;1.33;;;11.00;99.90;;;-144.05;66.80;125687.94;4998425;28;20120;-78
2022/11/07 00:41:00;;;;;;;2.42;1.20;;;10.90;99.90;;;-144.05;67.29;125687.94;5015149;28;20029;-80
2022/11/07 00:43:28;;;;;;;5.15;1.27;;;11.00;99.90;;;-144.05;67.02;125687.94;5016069;28;20426;-79
2022/11/07 00:45:56;;;;;;;5.60;1.40;;;11.00;99.90;;;-144.05;66.74;125687.94;5016885;28;20030;-79
2022/11/07 00:48:22;;;;;;;4.25;1.55;;;11.00;99.90;;;-144.05;66.93;125687.94;5014849;28;20030;-80
2022/11/07 00:50:48;;;;;;;3.28;1.20;;;11.00;99.90;;;-144.05;66.52;125687.94;5014637;28;20030;-78
2022/11/07 00:53:14;;;;;;;4.78;1.65;;;11.10;99.90;;;-144.05;66.43;125687.94;5016188;28;20030;-80
2022/11/07 00:55:40;;;;;;;3.90;1.40;;;11.10;99.90;;;-144.05;66.25;125687.94;5013571;28;20030;-77
2022/11/07 00:58:06;;;;;;;5.80;1.50;;;11.10;99.90;;;-144.05;66.00;125687.94;5015049;28;20029;-80
2022/11/07 01:00:32;;;;;;;2.88;1.10;;;11.10;99.90;;;-144.05;66.85;125687.94;5015592;28;20022;-80
2022/11/07 01:05:42;;;;;;;2.63;1.13;;;11.00;99.90;;;-144.05;67.15;125687.94;5015440;28;20084;-79
2022/11/07 01:08:08;;;;;;;5.63;1.40;;;11.00;99.90;;;-144.05;67.25;125687.94;5014822;28;20038;-80
2022/11/07 01:10:40;;;;;;;1.75;1.23;;;11.00;99.90;;;-144.05;67.37;125687.94;5015105;28;20034;-80
2022/11/07 01:13:06;;;;;;;2.75;1.30;;;11.00;99.90;;;-144.05;67.67;125687.94;5014345;28;20030;-79
2022/11/07 01:15:32;;;;;;;5.25;1.17;;;10.90;99.90;;;-144.05;68.08;125687.94;5014845;28;20505;-80
2022/11/07 01:17:57;;;;;;;3.15;1.30;;;10.80;99.90;;;-144.05;68.01;125687.94;5014657;28;20049;-79
2022/11/07 01:20:23;;;;;;;1.83;1.10;;;10.80;99.90;;;-144.05;68.49;125687.94;5015241;28;20407;-80
2022/11/07 01:22:49;;;;;;;3.15;1.23;;;10.70;99.90;;;-144.05;68.26;125687.94;5014903;28;20026;-79
2022/11/07 01:25:15;;;;;;;2.67;1.30;;;10.70;99.90;;;-144.05;68.39;125687.94;5015851;28;20030;-79
2022/11/07 01:27:41;;;;;;;4.72;1.70;;;10.80;99.90;;;-144.05;68.79;125687.94;5015503;28;20034;-79
2022/11/07 01:30:08;;;;;;;1.88;1.10;;;10.80;99.90;;;-144.05;68.38;125687.94;5015061;28;20049;-80
2022/11/07 01:32:33;;;;;;;5.03;1.45;;;10.90;99.90;;;-144.05;68.91;125687.94;5015082;28;20452;-79
2022/11/07 01:34:59;;;;;;;3.83;1.48;;;10.80;99.90;;;-144.05;68.76;125687.94;5014635;28;20050;-78
2022/11/07 01:37:25;;;;;;;3.00;1.40;;;10.80;99.90;;;-144.05;68.51;125687.94;5015201;28;20057;-79
2022/11/07 01:39:51;;;;;;;3.20;1.23;;;10.90;99.90;;;-144.05;68.72;125687.94;5014591;28;20025;-79
2022/11/07 01:42:17;;;;;;;4.00;0.90;;;10.80;99.90;;;-144.05;68.72;125687.94;5014755;28;20026;-80
2022/11/07 01:44:58;;;;;;;2.25;0.90;;;10.70;99.90;;;-144.05;69.08;125687.94;5014648;28;20022;-79
2022/11/07 01:47:36;;;;;;;4.07;1.08;;;10.70;99.90;;;-144.05;69.86;125687.94;5015256;28;20478;-79
2022/11/07 01:50:06;;;;;;;5.78;1.77;;;10.70;99.90;;;-144.05;69.38;125687.94;5014757;28;20045;-81
2022/11/07 01:52:40;;;;;;;3.60;1.30;;;10.70;99.90;;;-144.05;70.20;125687.94;5014992;28;20409;-80
2022/11/07 01:55:16;;;;;;;4.95;1.40;;;10.60;99.90;;;-144.05;70.21;125687.94;4997204;28;20452;-79
2022/11/07 01:57:58;;;;;;;3.88;1.00;;;10.60;99.90;;;-144.05;69.85;125687.94;4996695;28;20551;-80
2022/11/07 02:00:26;;;;;;;4.63;1.20;;;10.60;99.90;;;-144.05;70.18;125687.94;5014580;28;20026;-79
2022/11/07 02:03:09;;;;;;;3.95;1.17;;;10.60;99.90;;;-144.05;70.18;125687.94;5014768;28;20041;-80
2022/11/07 02:05:58;;;;;;;3.17;1.40;;;10.50;99.90;;;-144.05;70.02;125687.94;5013277;28;20045;-80
2022/11/07 02:08:26;;;;;;;2.88;1.52;;;10.50;99.90;;;-144.05;70.71;125687.94;4996632;28;20080;-79
2022/11/07 02:10:53;;;;;;;5.47;1.58;;;10.50;99.90;;;-144.05;70.43;125687.94;5014695;28;20058;-80
2022/11/07 02:13:28;;;;;;;4.72;1.17;;;10.50;99.90;;;-144.05;71.01;125687.94;5014888;28;20034;-79
2022/11/07 02:15:54;;;;;;;2.38;1.08;;;10.50;99.90;;;-144.05;70.53;125687.94;5014207;28;20038;-80
2022/11/07 02:18:23;;;;;;;4.50;1.38;;;10.50;99.90;;;-144.05;70.61;125687.94;5014621;28;20038;-79
2022/11/07 02:20:52;;;;;;;3.30;1.38;;;10.50;99.90;;;-144.05;71.08;125687.94;5014343;28;20527;-80
2022/11/07 02:23:44;;;;;;;2.08;0.80;;;10.50;99.90;;;-144.05;71.17;125687.94;5013958;28;20084;-80
2022/11/07 02:26:11;;;;;;;3.45;1.40;;;10.50;99.90;;;-144.05;71.43;125687.94;5018213;28;20022;-80
2022/11/07 02:28:41;;;;;;;3.90;1.08;;;10.40;99.90;;;-144.05;71.50;125687.94;5018085;28;20033;-79
2022/11/07 02:31:07;;;;;;;3.72;1.10;;;10.30;99.90;;;-144.05;71.50;125687.94;5018123;28;20512;-80
2022/11/07 02:33:32;;;;;;;1.70;0.88;;;10.40;99.90;;;-144.05;71.50;125687.94;5018439;28;20033;-79
2022/11/07 02:36:00;;;;;;;3.72;1.35;;;10.40;99.90;;;-144.05;71.54;125687.94;5016499;28;20030;-79
2022/11/07 02:38:36;;;;;;;2.58;0.90;;;10.40;99.90;;;-144.05;71.86;125687.94;5018128;28;20049;-80
2022/11/07 02:41:25;;;;;;;6.05;1.30;;;10.40;99.90;;;-144.05;71.98;125687.94;5018226;28;20018;-80
2022/11/07 02:44:00;;;;;;;3.75;1.23;;;10.40;99.90;;;-144.05;71.38;125687.94;5017467;28;20033;-79
2022/11/07 02:46:29;;;;;;;6.53;1.45;;;10.40;99.90;;;-144.05;71.47;125687.94;5017742;28;20492;-79
2022/11/07 02:49:00;;;;;;;4.13;1.20;;;10.40;99.90;;;-144.05;71.47;125687.94;5017484;28;20092;-79
2022/11/07 02:51:26;;;;;;;6.15;1.20;;;10.50;99.90;;;-144.05;71.29;125687.94;5017622;28;20444;-80
2022/11/07 02:53:52;;;;;;;3.03;1.20;;;10.50;99.90;;;-144.05;71.10;125687.94;5015696;28;20056;-79
2022/11/07 02:56:20;;;;;;;5.68;1.30;;;10.50;99.90;;;-144.05;71.42;125687.94;5017190;28;20061;-80
2022/11/07 02:58:46;;;;;;;4.35;1.13;;;10.40;99.90;;;-144.05;71.00;125687.94;5018038;28;20030;-80
2022/11/07 03:01:12;;;;;;;3.58;1.15;;;10.50;99.90;;;-144.05;70.95;125687.94;5017102;28;20037;-79
2022/11/07 03:03:45;;;;;;;5.18;1.85;;;10.50;99.90;;;-144.05;70.74;125687.94;5017653;28;20428;-79
2022/11/07 03:06:16;;;;;;;5.80;1.48;;;10.50;99.90;;;-144.05;71.13;125687.94;5017284;28;20452;-79
2022/11/07 03:08:42;;;;;;;4.68;1.45;;;10.50;99.90;;;-144.05;71.23;125687.94;5016741;28;20081;-80
2022/11/07 03:11:10;;;;;;;3.17;1.25;;;10.40;99.90;;;-144.05;71.08;125687.94;5015904;28;20054;-79
2022/11/07 03:13:37;;;;;;;4.25;1.25;;;10.50;99.90;;;-144.05;70.72;125687.94;5017006;28;20029;-80
2022/11/07 03:16:10;;;;;;;5.72;1.17;;;10.50;99.90;;;-144.05;71.06;125687.94;5037850;23;20228;-82
2022/11/07 03:18:36;;;;;;;4.85;1.35;;;10.50;99.90;;;-144.05;70.98;125687.94;5016266;28;20041;-82
2022/11/07 03:21:04;;;;;;;4.70;1.58;;;10.60;99.90;;;-144.05;70.41;125687.94;5016649;28;20026;-81
2022/11/07 03:23:31;;;;;;;6.28;1.40;;;10.60;99.90;;;-144.05;70.08;125687.94;5031124;28;20152;-80
2022/11/07 03:25:57;;;;;;;5.88;1.30;;;10.70;99.90;;;-144.05;70.37;125687.94;5027821;28;20057;-82
2022/11/07 03:28:23;;;;;;;3.03;1.13;;;10.70;99.90;;;-144.05;69.88;125687.94;4996450;28;20030;-83
2022/11/07 03:30:50;;;;;;;4.15;1.02;;;10.80;99.90;;;-144.05;69.90;125687.94;4997258;28;20041;-83
2022/11/07 03:33:16;;;;;;;7.28;1.70;;;10.80;99.90;;;-144.05;69.95;125687.94;4996438;28;20077;-80
2022/11/07 03:35:42;;;;;;;2.92;1.27;;;10.90;99.90;;;-144.05;69.72;125687.94;4994532;28;20046;-81
2022/11/07 03:38:09;;;;;;;8.05;1.60;;;10.80;99.90;;;-144.05;70.05;125687.94;4995915;28;20027;-81
2022/11/07 03:40:35;;;;;;;3.15;1.35;;;10.80;99.90;;;-144.05;69.98;125687.94;4996362;28;20030;-83
2022/11/07 03:43:01;;;;;;;3.33;1.33;;;10.80;99.90;;;-144.05;70.33;125687.94;5011563;28;20031;-81
2022/11/07 03:45:27;;;;;;;3.83;1.35;;;10.70;99.90;;;-144.05;69.97;125687.94;5011002;28;20154;-82
2022/11/07 03:47:53;;;;;;;7.20;1.90;;;10.70;99.90;;;-144.05;69.95;125687.94;4994817;28;20030;-82
2022/11/07 03:50:21;;;;;;;10.50;1.95;;;10.70;99.90;;;-144.05;69.78;125687.94;4996529;28;20146;-84
2022/11/07 03:52:48;;;;;;;6.13;1.63;;;10.70;99.90;;;-144.05;69.77;125687.94;4996279;28;20030;-83
2022/11/07 03:55:16;;;;;;;5.68;1.38;;;10.70;99.90;;;-144.05;70.12;125687.94;4996645;28;20049;-84
2022/11/07 03:57:43;;;;;;;7.28;2.50;;;10.70;99.90;;;-144.05;69.91;125687.94;5012298;28;20537;-85
2022/11/07 04:00:11;;;;;;;4.70;1.40;;;10.70;99.90;;;-144.05;69.93;125687.94;4998298;28;20071;-84
2022/11/07 04:02:37;;;;;;;5.78;1.63;;;10.70;99.90;;;-144.05;70.18;125687.94;4996674;28;20030;-80
2022/11/07 04:05:03;;;;;;;6.03;1.90;;;10.70;99.90;;;-144.05;69.68;125687.94;4997141;28;20037;-83
2022/11/07 04:07:29;;;;;;;7.80;1.70;;;10.80;99.90;;;-144.05;70.00;125687.94;4997978;28;20038;-81
2022/11/07 04:09:55;;;;;;;7.93;1.60;;;10.80;99.90;;;-144.05;69.67;125687.94;4997657;28;20045;-80
2022/11/07 04:17:52;;;;;;;9.13;1.42;;;10.80;99.90;;;-144.05;69.95;125687.94;4997541;28;20548;-83
2022/11/07 04:20:18;;;;;;;4.60;1.50;;;10.90;99.90;;;-144.05;69.80;125687.94;4995777;28;20034;-84
2022/11/07 04:22:44;;;;;;;7.32;1.50;;;10.80;99.90;;;-144.05;69.29;125687.94;4996135;28;20112;-82
2022/11/07 04:25:10;;;;;;;4.55;1.10;;;10.90;99.90;;;-144.05;69.28;125687.94;4995633;28;20027;-83
2022/11/07 04:27:42;;;;;;;6.38;1.73;;;10.80;99.90;;;-144.05;69.73;125687.94;4997131;28;20040;-81
2022/11/07 04:30:25;;;;;;;7.30;1.40;;;10.80;99.90;;;-144.05;69.85;125687.94;4994732;28;20058;-83
2022/11/07 04:32:58;;;;;;;6.53;1.50;;;10.80;99.90;;;-144.05;69.67;125687.94;5005798;28;20058;-81
2022/11/07 04:35:31;;;;;;;6.50;1.63;;;10.80;99.90;;;-144.05;69.67;125687.94;5006569;28;20057;-83
2022/11/07 04:38:00;;;;;;;4.15;1.38;;;10.80;99.90;;;-144.05;69.58;125687.94;5009322;28;20034;-82
2022/11/07 04:40:28;;;;;;;9.65;1.48;;;10.80;99.90;;;-144.05;69.48;125687.94;5002487;28;20034;-83
2022/11/07 04:42:55;;;;;;;9.30;1.50;;;10.80;99.90;;;-144.05;69.51;125687.94;4999823;28;20512;-81
2022/11/07 04:45:21;;;;;;;4.35;1.55;;;10.70;99.90;;;-144.05;69.65;125687.94;4998623;28;20035;-85
2022/11/07 04:47:48;;;;;;;6.13;1.48;;;10.70;99.90;;;-144.05;69.83;125687.94;4999029;28;20034;-83
2022/11/07 04:50:18;;;;;;;6.45;1.67;;;10.70;99.90;;;-144.05;69.57;125687.94;4998924;28;20038;-83
2022/11/07 04:52:46;;;;;;;3.30;1.20;;;10.70;99.90;;;-144.05;69.99;125687.94;4999302;28;20471;-81
2022/11/07 04:55:29;;;;;;;8.45;2.17;;;10.70;99.90;;;-144.05;69.78;125687.94;4999734;28;20049;-81
2022/11/07 04:57:56;;;;;;;4.15;1.20;;;10.70;99.90;;;-144.05;70.42;125687.94;4998671;28;20026;-84
2022/11/07 05:00:24;;;;;;;5.80;1.88;;;10.60;99.90;;;-144.05;70.39;125687.94;5001225;28;20034;-80
2022/11/07 05:02:50;;;;;;;7.28;1.70;;;10.60;99.90;;;-144.05;70.77;125687.94;5015192;28;20037;-82
2022/11/07 05:05:17;;;;;;;9.68;2.00;;;10.60;99.90;;;-144.05;70.49;125687.94;5011058;28;20038;-83
2022/11/07 05:07:44;;;;;;;4.88;1.35;;;10.60;99.90;;;-144.05;70.67;125687.94;5006553;28;20053;-83
2022/11/07 05:10:27;;;;;;;8.43;1.83;;;10.50;99.90;;;-144.05;70.61;125687.94;4999779;28;20027;-84
2022/11/07 05:12:55;;;;;;;5.63;1.65;;;10.50;99.90;;;-144.05;70.75;125687.94;4998008;28;20034;-84
2022/11/07 05:15:21;;;;;;;5.93;1.48;;;10.50;99.90;;;-144.05;70.31;125687.94;4998223;28;20094;-82
2022/11/07 05:17:48;;;;;;;6.45;1.63;;;10.50;99.90;;;-144.05;70.93;125687.94;4997954;28;20058;-82
2022/11/07 05:20:37;;;;;;;4.97;1.42;;;10.50;99.90;;;-144.05;70.90;125687.94;4998607;28;20061;-82
2022/11/07 05:23:11;;;;;;;5.72;1.50;;;10.50;99.90;;;-144.05;70.59;125687.94;4998984;28;20037;-82
2022/11/07 05:25:44;;;;;;;5.03;1.20;;;10.50;99.90;;;-144.05;70.56;125687.94;4997207;28;20026;-82
2022/11/07 05:28:18;;;;;;;4.05;1.40;;;10.50;99.90;;;-144.05;70.39;125687.94;4998930;28;20033;-83
2022/11/07 05:30:45;;;;;;;11.93;1.48;;;10.50;99.90;;;-144.05;70.89;125687.94;4998567;28;20455;-82
2022/11/07 05:33:15;;;;;;;8.77;1.92;;;10.50;99.90;;;-144.05;70.88;125687.94;4996589;28;20034;-82
2022/11/07 05:35:43;;;;;;;6.22;1.73;;;10.50;99.90;;;-144.05;71.00;125687.94;4997490;28;20031;-84
2022/11/07 05:38:09;;;;;;;10.93;1.80;;;10.50;99.90;;;-144.05;70.82;125687.94;4997306;28;20030;-82
2022/11/07 05:40:39;;;;;;;5.05;1.45;;;10.50;99.90;;;-144.05;70.94;125687.94;5011965;28;20030;-82
2022/11/07 05:43:13;;;;;;;7.00;1.95;;;10.50;99.90;;;-144.05;71.41;125687.94;4997047;28;20033;-83
2022/11/07 05:45:42;;;;;;;7.38;1.58;;;10.50;99.90;;;-144.05;70.76;125687.94;4996285;28;20486;-84
2022/11/07 05:48:12;;;;;;;7.95;2.47;;;10.40;99.90;;;-144.05;71.10;125687.94;4996489;28;20034;-83
2022/11/07 05:50:40;;;;;;;6.72;2.00;;;10.40;99.90;;;-144.05;71.58;125687.94;4996047;28;20030;-83
2022/11/07 05:53:06;;;;;;;6.07;1.48;;;10.40;99.90;;;-144.05;71.54;125687.94;5012783;28;20136;-81
2022/11/07 05:55:33;;;;;;;5.90;1.92;;;10.40;99.90;;;-144.05;71.85;125687.94;4997483;28;20050;-82
2022/11/07 05:57:59;;;;;;;9.45;1.80;;;10.50;99.90;;;-144.05;71.08;125687.94;4998905;28;20030;-82
2022/11/07 06:00:25;;;;;;;6.47;1.63;;;10.50;99.90;;;-144.05;71.15;125687.94;5002824;28;20490;-83
2022/11/07 06:02:59;;;;;;;3.95;1.42;;;10.50;99.90;;;-144.05;71.20;125687.94;5003610;28;20042;-81
2022/11/07 06:05:26;;;;;;;5.43;1.38;;;10.40;99.90;;;-144.05;71.11;125687.94;5003121;28;20022;-81
2022/11/07 06:07:52;;;;;;;6.18;1.52;;;10.40;99.90;;;-144.05;71.27;125687.94;5003331;28;20370;-83
2022/11/07 06:10:18;;;;;;;5.90;1.55;;;10.40;99.90;;;-144.05;71.13;125687.94;5003387;28;20026;-83
2022/11/07 06:12:45;;;;;;;4.88;1.45;;;10.40;99.90;;;-144.05;71.72;125687.94;5018079;28;20034;-79
2022/11/07 06:15:12;;;;;;;5.30;1.60;;;10.40;99.90;;;-144.05;71.61;125687.94;5017919;28;20090;-81
2022/11/07 06:17:38;;;;;;;4.65;1.48;;;10.40;99.90;;;-144.05;71.65;125687.94;5004106;28;20033;-83
2022/11/07 06:20:05;;;;;;;4.53;1.60;;;10.40;99.90;;;-144.05;71.30;125687.94;5002239;28;20031;-81
2022/11/07 06:22:30;;;;;;;4.40;1.85;;;10.40;99.90;;;-144.05;71.43;125687.94;5002760;28;20030;-79
2022/11/07 06:24:56;;;;;;;5.95;1.45;;;10.40;99.90;;;-144.05;71.30;125687.94;5019183;28;20030;-79
2022/11/07 06:27:22;;;;;;;9.00;1.85;;;10.40;99.90;;;-144.05;71.78;125687.94;5000611;28;20030;-79
2022/11/07 06:29:48;;;;;;;9.85;2.22;;;10.40;99.90;;;-144.05;72.31;125687.94;4999088;28;20026;-79
2022/11/07 06:32:14;;;;;;;8.07;1.98;;;10.40;99.90;;;-144.05;71.56;125687.94;4999045;28;20038;-79
2022/11/07 06:34:40;;;;;;;6.13;1.83;;;10.40;99.90;;;-144.05;71.16;125687.94;5000345;28;20050;-79
2022/11/07 06:37:06;;;;;;;6.50;1.42;;;10.60;99.90;;;-144.05;70.89;125687.94;5001304;28;20038;-77
2022/11/07 06:39:32;;;;;;;7.72;1.75;;;10.50;99.90;;;-144.05;71.05;125687.94;5003254;28;20049;-82
2022/11/07 06:41:57;;;;;;;6.95;1.55;;;10.60;99.90;;;-144.05;70.83;125687.94;5000696;28;20022;-80
2022/11/07 06:44:23;;;;;;;9.13;1.90;;;10.70;99.90;;;-144.05;70.27;125687.94;5001924;28;20113;-79
2022/11/07 06:46:49;;;;;;;8.85;2.30;;;10.70;99.90;;;-144.05;70.21;125687.94;5000805;28;20112;-80
2022/11/07 06:49:15;;;;;;;6.50;1.83;;;10.90;99.90;;;-144.05;69.11;125687.94;5003403;28;20212;-79
2022/11/07 06:51:41;;;;;;;7.60;1.90;;;10.90;99.90;;;-144.05;69.03;125687.94;5000019;28;20026;-81
2022/11/07 06:54:07;;;;;;;6.57;1.67;;;11.00;99.90;;;-144.05;68.84;125687.94;4999951;28;20026;-78
2022/11/07 06:56:33;;;;;;;8.35;2.10;;;11.10;99.90;;;-144.05;68.94;125687.94;5002960;28;20045;-85
2022/11/07 06:58:59;;;;;;;8.88;1.83;;;11.10;99.90;;;-144.05;68.54;125687.94;5001708;28;20030;-81
2022/11/07 07:01:25;;;;;;;8.48;1.15;;;11.10;99.90;;;-144.05;68.50;125687.94;5000290;28;20052;-78
2022/11/07 07:03:51;;;;;;;7.68;1.75;;;11.20;99.90;;;-144.05;68.36;125687.94;5000400;28;20029;-80
2022/11/07 07:06:17;;;;;;;8.65;1.95;;;11.20;99.90;;;-144.05;68.20;125687.94;5000032;28;20037;-79
2022/11/07 07:08:45;;;;;;;6.78;1.38;;;11.30;99.90;;;-144.05;68.14;125687.94;4998637;28;20347;-80
2022/11/07 07:11:14;;;;;;;8.40;2.22;;;11.40;99.90;;;-144.05;67.95;125687.94;4997569;28;20034;-80
2022/11/07 07:13:40;;;;;;;5.32;1.35;;;11.40;99.90;;;-144.05;67.93;125687.94;5004135;28;20387;-79
2022/11/07 07:16:08;;;;;;;5.90;1.95;;;11.40;99.90;;;-144.05;67.62;125687.94;5001989;28;20517;-81
2022/11/07 07:18:34;;;;;;;4.18;1.52;;;11.50;99.90;;;-144.05;67.56;125687.94;5001656;28;20062;-80
2022/11/07 07:21:11;;;;;;;6.78;1.90;;;11.50;99.90;;;-144.05;67.35;125687.94;5002093;28;20022;-82
2022/11/07 07:23:38;;;;;;;10.57;1.60;;;11.50;99.90;;;-144.05;67.79;125687.94;5001762;28;20022;-83
2022/11/07 07:26:12;;;;;;;14.65;2.88;;;11.50;99.90;;;-144.05;68.21;125687.94;4999402;28;20110;-81
2022/11/07 07:28:37;;;;;;;6.82;1.70;;;11.50;99.90;;;-144.05;67.98;125687.94;5000439;28;20454;-80
2022/11/07 07:31:12;;;;;;;8.20;2.20;;;11.50;99.90;;;-144.05;67.93;125687.94;5000777;28;20075;-77
2022/11/07 07:33:42;;;;;;;5.00;1.38;;;11.60;99.90;;;-144.05;68.14;125687.94;4999393;28;20026;-80
2022/11/07 07:36:09;;;;;;;9.13;1.77;;;11.60;99.90;;;-144.05;67.74;125687.94;4998204;28;20026;-82
2022/11/07 07:38:35;;;;;;;6.40;1.35;;;11.60;99.90;;;-144.05;67.20;125687.94;4997737;28;20045;-79
2022/11/07 07:41:03;;;;;;;6.95;1.70;;;11.70;99.90;;;-144.05;66.67;125687.94;4998636;28;20030;-81
2022/11/07 07:43:30;;;;;;;5.90;1.42;;;11.80;99.90;;;-144.05;66.71;125687.94;4996988;28;20100;-78
2022/11/07 07:46:06;;;;;;;7.28;1.85;;;11.80;99.90;;;-144.05;66.30;125687.94;4997601;28;20030;-81
2022/11/07 07:48:33;;;;;;;6.82;2.00;;;11.90;99.90;;;-144.05;66.49;125687.94;4997236;28;20037;-81
2022/11/07 07:50:59;;;;;;;5.03;1.23;;;11.90;99.90;;;-144.05;65.85;125687.94;4997801;28;20050;-78
2022/11/07 07:53:25;;;;;;;4.22;1.52;;;12.00;99.90;;;-144.05;65.31;125687.94;4998892;28;20152;-77
2022/11/07 07:55:57;;;;;;;12.88;2.05;;;12.00;99.90;;;-144.05;65.85;125687.94;4998849;28;20033;-83
2022/11/07 07:58:25;;;;;;;6.78;1.45;;;12.00;99.90;;;-144.05;65.60;125687.94;4997638;28;20089;-81
2022/11/07 08:00:58;;;;;;;7.35;1.80;;;12.00;99.90;;;-144.05;65.91;125687.94;4997783;28;20128;-78
2022/11/07 08:03:26;;;;;;;10.88;2.10;;;12.00;99.90;;;-144.05;65.94;125687.94;4999405;28;20045;-80
2022/11/07 08:05:57;;;;;;;7.78;1.77;;;12.00;99.90;;;-144.05;65.25;125687.94;4998500;28;20581;-80
2022/11/07 08:08:25;;;;;;;11.18;1.90;;;12.00;99.90;;;-144.05;65.24;125687.94;4999488;28;20031;-84
2022/11/07 08:10:54;;;;;;;9.57;1.85;;;12.10;99.90;;;-144.05;64.77;125687.94;5000005;28;20144;-82
2022/11/07 08:13:24;;;;;;;8.30;2.63;;;12.20;99.90;;;-144.05;64.57;125687.94;4999231;28;20041;-82
2022/11/07 08:15:52;;;;;;;8.55;1.42;;;12.30;99.90;;;-144.05;64.59;125687.94;5001506;28;20096;-81
2022/11/07 08:18:20;;;;;;;12.27;1.98;;;12.40;99.90;;;-144.05;64.52;125687.94;4998933;28;20110;-81
2022/11/07 08:20:53;;;;;;;4.55;1.55;;;12.40;99.90;;;-144.05;64.26;125687.94;4997043;28;20026;-81
2022/11/07 08:23:20;;;;;;;9.88;1.98;;;12.50;99.90;;;-144.05;64.20;125687.94;5000127;28;20034;-83
2022/11/07 08:25:58;;;;;;;5.95;1.70;;;12.60;99.90;;;-144.05;64.25;125687.94;4998864;28;20042;-82
2022/11/07 08:28:30;;;;;;;4.97;1.40;;;12.60;99.90;;;-144.05;64.05;125687.94;4998547;28;20130;-81
2022/11/07 08:31:05;;;;;;;7.65;1.65;;;12.70;99.90;;;-144.05;64.18;125687.94;4999907;28;20109;-82
2022/11/07 08:33:32;;;;;;;6.03;1.80;;;12.70;99.90;;;-144.05;63.93;125687.94;4998464;28;20046;-81
2022/11/07 08:36:02;;;;;;;8.52;1.83;;;12.70;99.90;;;-144.05;64.00;125687.94;4998183;28;20442;-80
2022/11/07 08:38:31;;;;;;;9.05;2.00;;;12.80;99.90;;;-144.05;63.52;125687.94;4996778;28;20109;-80
2022/11/07 08:40:59;;;;;;;6.10;1.58;;;12.90;99.90;;;-144.05;63.58;125687.94;4999721;28;20045;-82
2022/11/07 08:43:25;;;;;;;8.57;2.10;;;13.00;99.90;;;-144.05;63.65;125687.94;5005843;28;20053;-85
2022/11/07 08:45:54;;;;;;;9.43;2.05;;;13.10;99.90;;;-144.05;63.65;125687.94;4999603;28;20022;-82
2022/11/07 08:48:21;;;;;;;10.57;2.03;;;13.10;99.90;;;-144.05;63.58;125687.94;4999982;28;20058;-80
2022/11/07 08:50:53;;;;;;;9.35;1.67;;;13.10;99.90;;;-144.05;63.92;125687.94;4998169;28;20057;-82
2022/11/07 08:53:20;;;;;;;7.68;1.60;;;13.00;99.90;;;-144.05;63.97;125687.94;4997199;28;20031;-83
2022/11/07 08:55:46;;;;;;;10.80;2.60;;;13.00;99.90;;;-144.05;64.05;125687.94;4996932;28;20088;-82
2022/11/07 08:58:13;;;;;;;5.50;1.48;;;13.00;99.90;;;-144.05;63.93;125687.94;4997649;28;20030;-83
2022/11/07 09:00:41;;;;;;;7.00;1.42;;;13.10;99.90;;;-144.05;63.71;125687.94;4997065;28;20050;-81
2022/11/07 09:03:10;;;;;;;10.32;2.03;;;13.10;99.90;;;-144.05;63.77;125687.94;4998447;28;20054;-82
2022/11/07 09:05:38;;;;;;;5.07;1.50;;;13.10;99.90;;;-144.05;64.08;125687.94;4996425;28;20030;-81
2022/11/07 09:08:04;;;;;;;9.77;1.90;;;13.20;99.90;;;-144.05;63.74;125687.94;4996357;28;20094;-80
2022/11/07 09:10:30;;;;;;;9.02;1.70;;;13.20;99.90;;;-144.05;63.55;125687.94;4996066;28;20470;-82
2022/11/07 09:12:56;;;;;;;7.18;1.70;;;13.30;99.90;;;-144.05;63.33;125687.94;5000302;28;20123;-86
2022/11/07 09:15:25;;;;;;;13.07;1.92;;;13.40;99.90;;;-144.05;63.43;125687.94;5008772;23;20084;-85
2022/11/07 09:17:51;;;;;;;7.55;1.95;;;13.40;99.90;;;-144.05;63.26;125687.94;5014197;28;20117;-84
2022/11/07 09:20:17;;;;;;;7.47;1.77;;;13.50;99.90;;;-144.05;63.43;125687.94;4993894;28;20026;-84
2022/11/07 09:22:44;;;;;;;8.32;1.90;;;13.50;99.90;;;-144.05;63.43;125687.94;4978112;28;20100;-85
2022/11/07 09:25:11;;;;;;;8.38;1.60;;;13.50;99.90;;;-144.05;63.33;125687.94;4995216;28;20053;-83
2022/11/07 09:27:37;;;;;;;8.45;1.90;;;13.50;99.90;;;-144.05;62.60;125687.94;4978621;28;20140;-85
2022/11/07 09:30:07;;;;;;;5.85;1.55;;;13.60;99.90;;;-144.05;62.46;125687.94;5021148;23;20065;-82
2022/11/07 09:32:33;;;;;;;9.15;1.63;;;13.60;99.90;;;-144.05;62.80;125687.94;5019100;28;20030;-83
2022/11/07 09:34:59;;;;;;;7.22;2.25;;;13.70;99.90;;;-144.05;62.71;125687.94;5020616;28;20088;-82
2022/11/07 09:37:27;;;;;;;5.75;1.50;;;13.70;99.90;;;-144.05;62.79;125687.94;5025474;28;20366;-84
2022/11/07 09:39:52;;;;;;;5.30;1.58;;;13.70;99.90;;;-144.05;62.92;125687.94;5023745;28;20466;-81
2022/11/07 09:43:32;;;;;;;7.30;2.03;;;13.70;99.90;;;-144.05;63.09;125687.94;5023938;28;20038;-80
2022/11/07 09:46:44;;;;;;;7.25;2.30;;;13.80;99.90;;;-144.05;63.68;125687.94;4995671;28;20048;-77
2022/11/07 09:49:26;;;;;;;7.22;2.05;;;13.70;99.90;;;-144.05;63.08;125687.94;5008006;28;20037;-77
2022/11/07 09:52:17;;;;;;;8.35;1.83;;;13.80;99.90;;;-144.05;62.58;125687.94;5022491;28;20041;-78
2022/11/07 09:55:14;;;;;;;6.82;2.13;;;13.90;99.90;;;-144.05;62.97;125687.94;5005411;28;20037;-77
2022/11/07 09:57:41;;;;;;;;;;;14.00;99.90;;;-144.05;62.52;125687.94;5009247;28;20137;-79
2022/11/07 10:00:16;;;;;;;8.27;1.60;;;14.00;99.90;;;-144.05;62.86;125687.94;5027114;28;19964;-76
2022/11/07 10:02:53;;;;;;;7.05;1.50;;;14.00;99.90;;;-144.05;62.78;125687.94;5022634;28;20034;-77
2022/11/07 10:06:10;;;;;;;11.25;2.20;;;14.00;99.90;;;-144.05;62.57;125687.94;5014283;28;20068;-76
2022/11/07 10:09:21;;;;;;;9.23;1.45;;;14.00;99.90;;;-144.05;62.30;125687.94;4996615;28;20091;-79
2022/11/07 10:13:01;;;;;;;8.10;1.85;;;14.10;99.90;;;-144.05;62.84;125687.94;5016497;28;20168;-78
2022/11/07 10:16:02;;;;;;;6.15;1.63;;;14.10;99.90;;;-144.05;63.26;125687.94;4958397;28;20057;-76
2022/11/07 10:19:18;;;;;;;5.97;1.90;;;14.00;99.90;;;-144.05;64.00;125687.94;4995543;28;20087;-78
2022/11/07 10:22:20;;;;;;;5.60;1.48;;;13.90;99.90;;;-144.05;65.08;125687.94;5013614;28;20022;-77